Coral Harbour Airport
CYZS : now visible

Airfield :











YOU CAN JOIN US ON...

 
LOGIN :

Register | Disclaimer

   EN    FR    IT 

 









Legend :    VFR   Marginal VFR   IFR   Intensive IFR   Very Intensive IFR
Visi :
Ceiling :
>= 8 km
>= 3000ft
5 to 8 km
1000 to 3000 ft
1500m to 5 km
500 to 1000 ft
800 to 1500m
200 to 500 ft
< 800m
< 200 ft
Symbols :   Thunderstorms  Fog  Heavy snow  Heavy precipitations  Wind > 20 kt






- Airport Elevation : 210 ft
- IATA code : YZS


CYZS - Coral Harbour

CURRENT METAR :
  • 280400Z 33006KT 15SM BKN022 M02/M05 A3002 RMK SC7 SLP172

EXPIRED METARs :
  • 280300Z 35008KT 15SM BKN025 M02/M05 A3002 RMK SC6 SLP174
  • 280200Z 36010KT 15SM BKN027 M02/M06 A3002 RMK SC7 SLP173
  • 280100Z 35010KT 15SM BKN025 M01/M05 A3001 RMK SC7 SLP170
  • 280000Z 36012KT 15SM OVC025 M01/M06 A3001 RMK SC8 SLP170

TAF TAF CYZS
Valid from the 28 at 01:00 until the 28 at 13:00 UTC


280040Z 2801/2813 33012KT P6SM OVC030
TEMPO 2801/2813 OVC020 RMK NXT FCST BY 280700Z
CZEG FIR / North America



MET'MAP, your aeronautical weather chart ! - Copyright ORBIFLY December 2007 - Disclaimer

ORBIFLY MET'MAP TEAM :

Programming & Development : Alexandra Zaïnal
Original concept : Baudouin d'Aumeries
Technical & hardware support : Manuel Goepfert
Assistance : Marc-Olivier Méhu




SOURCES & CREDITS :

   NOAA       Earth
Advisory